Terminal Aerodrome Forecast
Issued by NWS

Home | Current Version | Previous Version | Text Only | Print | Product List | Glossary On
Versions: 1 2 3 4 5 6 7 8 9 10 11 12 13 14 15 16 17 18 19 20 21 22 23 24 25 26 27 28 29 30 31 32 33 34 35 36 37 38 39 40 41 42 43 44
000
FTUS46 KOTX 242324
TAFMWH
TAF
KMWH 242324Z 2500/2524 35004KT P6SM OVC015
     FM250300 31004KT 5SM BR OVC007
     FM250600 30004KT 2SM BR OVC004
     FM251500 34003KT 1/2SM FG OVC003
     FM252100 35003KT 3SM BR OVC005=

USA.gov is the U.S. government's official web portal to all federal, state and local government web resources and services.